Time;durP1;ratioP1;P1;durP2;ratioP2;P2;SDS_P1;SDS_P2;PMS_P1;PMS_P2;Temp;Humidity;BMP_temperature;BMP_pressure;BME280_temperature;BME280_humidity;BME280_pressure;Samples;Min_cycle;Max_cycle;Signal;HPM_P1;HPM_P2
2023/08/13 00:00:10;;;;;;;3.67;2.40;;;20.60;99.90;;;;;;5019546;28;20026;-67
2023/08/13 00:02:35;;;;;;;8.48;2.65;;;20.70;99.90;;;;;;5020615;28;20096;-67
2023/08/13 00:05:02;;;;;;;6.60;2.85;;;20.60;99.90;;;;;;5020380;28;20021;-67
2023/08/13 00:07:28;;;;;;;5.22;2.80;;;20.50;99.90;;;;;;5019320;28;20080;-67
2023/08/13 00:09:55;;;;;;;6.72;2.63;;;20.50;99.90;;;;;;5019048;28;20026;-67
2023/08/13 00:12:21;;;;;;;7.82;2.40;;;20.50;99.90;;;;;;5019849;28;20026;-67
2023/08/13 00:14:47;;;;;;;3.58;1.70;;;20.50;99.90;;;;;;5020154;28;20030;-67
2023/08/13 00:17:13;;;;;;;3.00;2.70;;;20.50;99.90;;;;;;5019018;28;20045;-67
2023/08/13 00:19:38;;;;;;;3.13;2.50;;;20.50;99.90;;;;;;5019800;28;20069;-67
2023/08/13 00:22:04;;;;;;;2.65;2.10;;;20.50;99.90;;;;;;5020126;28;20099;-67
2023/08/13 00:24:29;;;;;;;4.63;2.72;;;20.50;99.90;;;;;;5018962;28;20044;-67
2023/08/13 00:26:55;;;;;;;4.97;2.17;;;20.50;99.90;;;;;;5019224;28;20022;-67
2023/08/13 00:29:20;;;;;;;7.03;2.30;;;20.50;99.90;;;;;;5018716;28;20056;-67
2023/08/13 00:31:46;;;;;;;6.80;2.33;;;20.40;99.90;;;;;;5018687;28;20014;-67
2023/08/13 00:34:11;;;;;;;5.53;2.25;;;20.40;99.90;;;;;;5018854;28;20018;-67
2023/08/13 00:36:37;;;;;;;6.20;2.15;;;20.30;99.90;;;;;;5018552;28;20018;-67
2023/08/13 00:39:03;;;;;;;9.98;2.50;;;20.20;99.90;;;;;;5019382;28;20025;-67
2023/08/13 00:41:28;;;;;;;2.38;2.17;;;20.20;99.90;;;;;;5019413;28;20093;-67
2023/08/13 00:43:54;;;;;;;2.20;2.00;;;20.00;99.90;;;;;;5019271;28;20058;-67
2023/08/13 00:46:20;;;;;;;5.10;2.00;;;20.00;99.90;;;;;;5018526;28;20018;-67
2023/08/13 00:48:46;;;;;;;3.03;1.95;;;20.10;99.90;;;;;;5018914;28;20048;-67
2023/08/13 00:51:14;;;;;;;7.15;1.88;;;20.10;99.90;;;;;;5019146;28;20050;-67
2023/08/13 00:53:48;;;;;;;3.72;2.08;;;20.10;99.90;;;;;;5018611;28;20021;-67
2023/08/13 00:56:15;;;;;;;5.78;2.05;;;20.20;99.90;;;;;;5018313;28;20046;-67
2023/08/13 00:58:42;;;;;;;4.20;1.90;;;20.10;99.90;;;;;;5018357;28;20026;-67
2023/08/13 01:01:07;;;;;;;2.05;1.85;;;20.00;99.90;;;;;;5018499;28;20030;-67
2023/08/13 01:03:34;;;;;;;4.15;2.08;;;19.90;99.90;;;;;;5018216;28;20056;-67
2023/08/13 01:06:19;;;;;;;5.22;1.73;;;19.80;99.90;;;;;;5019002;28;20022;-67
2023/08/13 01:09:06;;;;;;;9.55;2.45;;;19.70;99.90;;;;;;5017413;28;20029;-67
2023/08/13 01:11:40;;;;;;;5.80;1.77;;;19.70;99.90;;;;;;5019076;28;20033;-67
2023/08/13 01:14:26;;;;;;;3.30;1.70;;;19.70;99.90;;;;;;5018724;28;20187;-67
2023/08/13 01:16:54;;;;;;;5.32;2.03;;;19.70;99.90;;;;;;5018015;28;20117;-67
2023/08/13 01:19:20;;;;;;;5.80;2.15;;;19.70;99.90;;;;;;5017712;28;20057;-67
2023/08/13 01:21:46;;;;;;;5.18;2.15;;;19.70;99.90;;;;;;5018746;28;20076;-67
2023/08/13 01:24:11;;;;;;;9.35;2.28;;;19.70;99.90;;;;;;5018814;28;20037;-67
2023/08/13 01:27:06;;;;;;;5.72;2.70;;;19.70;99.90;;;;;;5018057;28;20032;-67
2023/08/13 01:29:46;;;;;;;6.97;2.10;;;19.70;99.90;;;;;;5014167;28;20034;-67
2023/08/13 01:32:15;;;;;;;6.10;2.42;;;19.70;99.90;;;;;;5017663;28;20026;-67
2023/08/13 01:34:41;;;;;;;3.55;2.15;;;19.80;99.90;;;;;;5017564;28;20098;-67
2023/08/13 01:37:07;;;;;;;4.80;2.65;;;19.80;99.90;;;;;;5017402;28;20030;-67
2023/08/13 01:39:33;;;;;;;5.10;3.13;;;19.80;99.90;;;;;;5018743;28;20105;-67
2023/08/13 01:41:59;;;;;;;6.60;3.60;;;19.80;99.90;;;;;;5017279;28;20046;-67
2023/08/13 01:44:24;;;;;;;5.57;3.50;;;19.70;99.90;;;;;;5018290;28;20066;-67
2023/08/13 01:46:50;;;;;;;6.75;3.65;;;19.60;99.90;;;;;;5018258;28;20036;-67
2023/08/13 01:49:16;;;;;;;11.05;4.03;;;19.50;99.90;;;;;;5017249;28;20080;-67
2023/08/13 01:51:41;;;;;;;8.55;3.65;;;19.60;99.90;;;;;;5017399;28;20032;-67
2023/08/13 01:54:07;;;;;;;8.80;3.85;;;19.60;99.90;;;;;;5017150;28;20026;-67
2023/08/13 01:56:32;;;;;;;9.75;4.18;;;19.50;99.90;;;;;;5017743;28;20018;-67
2023/08/13 01:58:58;;;;;;;7.78;3.97;;;19.50;99.90;;;;;;5017035;28;20109;-67
2023/08/13 02:01:23;;;;;;;17.30;4.18;;;19.50;99.90;;;;;;5017192;28;20085;-67
2023/08/13 02:03:49;;;;;;;22.58;5.50;;;19.50;99.90;;;;;;5017935;28;20026;-67
2023/08/13 02:06:15;;;;;;;11.70;4.40;;;19.60;99.90;;;;;;5017856;28;20045;-67
2023/08/13 02:08:40;;;;;;;27.95;4.90;;;19.60;99.90;;;;;;5017481;28;20040;-67
2023/08/13 02:11:06;;;;;;;41.38;6.28;;;19.60;99.90;;;;;;5016984;28;20033;-67
2023/08/13 02:13:31;;;;;;;38.72;5.28;;;19.50;99.90;;;;;;5017211;28;20026;-67
2023/08/13 02:16:04;;;;;;;70.28;6.00;;;19.40;99.90;;;;;;5016829;28;20029;-67
2023/08/13 02:18:29;;;;;;;38.25;5.80;;;19.20;99.90;;;;;;5017344;28;20022;-67
2023/08/13 02:20:55;;;;;;;25.77;4.68;;;19.10;99.90;;;;;;5016836;28;20025;-67
2023/08/13 02:23:21;;;;;;;19.02;5.63;;;19.10;99.90;;;;;;5016709;28;20026;-67
2023/08/13 02:25:47;;;;;;;14.77;4.72;;;19.20;99.90;;;;;;5017676;28;20026;-67
2023/08/13 02:28:13;;;;;;;15.98;5.07;;;19.20;99.90;;;;;;5017459;28;20026;-67
2023/08/13 02:30:39;;;;;;;16.77;4.82;;;19.20;99.90;;;;;;5016899;28;20029;-67
2023/08/13 02:33:04;;;;;;;12.52;5.20;;;19.20;99.90;;;;;;5016730;28;20022;-67
2023/08/13 02:35:30;;;;;;;13.60;4.72;;;19.20;99.90;;;;;;5017442;28;20034;-67
2023/08/13 02:37:55;;;;;;;13.85;4.78;;;19.30;99.90;;;;;;5017238;28;20036;-67
2023/08/13 02:40:21;;;;;;;5.93;3.83;;;19.30;99.90;;;;;;5016759;28;20048;-67
2023/08/13 02:42:46;;;;;;;8.82;3.92;;;19.40;99.90;;;;;;5016570;28;20022;-68
2023/08/13 02:45:12;;;;;;;14.20;4.95;;;19.50;99.90;;;;;;5016488;28;20022;-68
2023/08/13 02:47:37;;;;;;;9.48;4.00;;;19.60;99.90;;;;;;5016473;28;20022;-68
2023/08/13 02:50:03;;;;;;;10.48;5.13;;;19.70;99.90;;;;;;5017650;28;20022;-68
2023/08/13 02:52:29;;;;;;;6.93;3.80;;;19.90;99.90;;;;;;5016366;28;20026;-67
2023/08/13 02:54:54;;;;;;;9.20;5.05;;;19.80;99.90;;;;;;5017511;28;20036;-68
2023/08/13 02:57:20;;;;;;;10.27;4.55;;;19.80;99.90;;;;;;5016136;28;20034;-68
2023/08/13 02:59:46;;;;;;;7.07;4.28;;;19.80;99.90;;;;;;5016158;28;20022;-68
2023/08/13 03:02:11;;;;;;;13.98;5.65;;;19.80;99.90;;;;;;5016536;28;20061;-68
2023/08/13 03:04:37;;;;;;;8.70;4.93;;;19.90;99.90;;;;;;5017087;28;20026;-67
2023/08/13 03:07:02;;;;;;;8.40;4.55;;;19.80;99.90;;;;;;5016542;28;20032;-67
2023/08/13 03:09:28;;;;;;;7.15;4.57;;;19.80;99.90;;;;;;5016117;28;20034;-68
2023/08/13 03:11:54;;;;;;;9.27;4.50;;;19.70;99.90;;;;;;5016212;28;20026;-68
2023/08/13 03:14:19;;;;;;;8.30;4.68;;;19.70;99.90;;;;;;5016314;28;20029;-67
2023/08/13 03:16:45;;;;;;;9.00;5.35;;;19.70;99.90;;;;;;5016101;28;20030;-68
2023/08/13 03:19:10;;;;;;;6.45;4.03;;;19.80;99.90;;;;;;5016858;28;20030;-68
2023/08/13 03:21:36;;;;;;;6.40;4.50;;;19.80;99.90;;;;;;5015949;28;20108;-67
2023/08/13 03:24:02;;;;;;;6.18;4.15;;;19.80;99.90;;;;;;5016515;28;20026;-68
2023/08/13 03:26:27;;;;;;;9.77;4.45;;;19.80;99.90;;;;;;5017110;28;20076;-68
2023/08/13 03:28:53;;;;;;;7.88;5.20;;;19.90;99.90;;;;;;5017394;28;20033;-68
2023/08/13 03:31:18;;;;;;;5.90;4.10;;;19.80;99.90;;;;;;5018542;28;20025;-67
2023/08/13 03:33:44;;;;;;;5.55;4.22;;;19.70;99.90;;;;;;5019771;28;20030;-68
2023/08/13 03:36:10;;;;;;;10.32;4.90;;;19.70;99.90;;;;;;5020675;28;20029;-67
2023/08/13 03:38:35;;;;;;;12.55;4.30;;;19.70;99.90;;;;;;5020098;28;20026;-68
2023/08/13 03:41:01;;;;;;;10.68;3.55;;;19.60;99.90;;;;;;5019943;28;20105;-68
2023/08/13 03:43:26;;;;;;;7.90;4.25;;;19.60;99.90;;;;;;5019715;28;20044;-67
2023/08/13 03:45:52;;;;;;;13.95;4.85;;;19.60;99.90;;;;;;5019454;28;20026;-67
2023/08/13 03:48:17;;;;;;;17.98;4.60;;;19.50;99.90;;;;;;5019829;28;20041;-67
2023/08/13 03:50:43;;;;;;;15.57;5.40;;;19.50;99.90;;;;;;5019481;28;20032;-67
2023/08/13 03:53:09;;;;;;;38.22;6.38;;;19.50;99.90;;;;;;5019670;28;20026;-67
2023/08/13 03:55:36;;;;;;;8.32;4.80;;;19.50;99.90;;;;;;5020496;28;20030;-67
2023/08/13 03:58:02;;;;;;;19.52;5.10;;;19.40;99.90;;;;;;5019111;28;20029;-68
2023/08/13 04:00:28;;;;;;;7.60;4.90;;;19.50;99.90;;;;;;5020218;28;20052;-68
2023/08/13 04:02:54;;;;;;;12.13;4.60;;;19.50;99.90;;;;;;5019326;28;20017;-67
2023/08/13 04:05:20;;;;;;;10.45;4.50;;;19.50;99.90;;;;;;5020328;28;20093;-68
2023/08/13 04:07:45;;;;;;;22.90;5.00;;;19.50;99.90;;;;;;5019787;28;20113;-67
2023/08/13 04:10:11;;;;;;;8.07;5.00;;;19.50;99.90;;;;;;5019000;28;20034;-67
2023/08/13 04:12:36;;;;;;;7.38;4.50;;;19.40;99.90;;;;;;5019328;28;20048;-67
2023/08/13 04:15:03;;;;;;;7.93;4.63;;;19.40;99.90;;;;;;5019478;28;20029;-68
2023/08/13 04:17:28;;;;;;;8.35;4.68;;;19.50;99.90;;;;;;5019829;28;20029;-68
2023/08/13 04:19:54;;;;;;;11.05;4.97;;;19.50;99.90;;;;;;5018814;28;20014;-67
2023/08/13 04:22:19;;;;;;;15.45;4.93;;;19.50;99.90;;;;;;5019260;28;20028;-68
2023/08/13 04:24:51;;;;;;;8.70;4.32;;;19.50;99.90;;;;;;5019524;28;20029;-67
2023/08/13 04:27:17;;;;;;;23.52;5.35;;;19.50;99.90;;;;;;5018839;28;20026;-68
2023/08/13 04:29:43;;;;;;;8.93;4.85;;;19.40;99.90;;;;;;5018864;28;20061;-67
2023/08/13 04:32:08;;;;;;;13.50;4.90;;;19.30;99.90;;;;;;5018707;28;20025;-67
2023/08/13 04:34:34;;;;;;;19.63;4.90;;;19.30;99.90;;;;;;5019012;28;20018;-67
2023/08/13 04:36:59;;;;;;;71.07;7.05;;;19.20;99.90;;;;;;5018948;28;20044;-67
2023/08/13 04:39:25;;;;;;;13.50;5.38;;;19.10;99.90;;;;;;5019241;28;20038;-68
2023/08/13 04:41:52;;;;;;;12.27;5.55;;;19.00;99.90;;;;;;5018369;28;20095;-68
2023/08/13 04:44:17;;;;;;;12.48;4.35;;;19.10;99.90;;;;;;5019671;28;20116;-67
2023/08/13 04:46:43;;;;;;;31.50;6.75;;;19.10;99.90;;;;;;5018435;28;20113;-68
2023/08/13 04:49:08;;;;;;;38.30;7.40;;;19.10;99.90;;;;;;5018324;28;20025;-67
2023/08/13 04:51:34;;;;;;;14.07;5.38;;;19.10;99.90;;;;;;5018615;28;20057;-67
2023/08/13 04:53:59;;;;;;;20.85;6.32;;;19.10;99.90;;;;;;5018327;28;20033;-68
2023/08/13 04:56:25;;;;;;;29.15;6.10;;;19.20;99.90;;;;;;5019093;28;20026;-67
2023/08/13 04:58:50;;;;;;;33.17;6.28;;;19.10;99.90;;;;;;5018574;28;20053;-67
2023/08/13 05:01:16;;;;;;;45.50;6.43;;;19.00;99.90;;;;;;5018571;28;20042;-68
2023/08/13 05:03:41;;;;;;;22.00;6.35;;;19.10;99.90;;;;;;5018004;28;20018;-67
2023/08/13 05:06:07;;;;;;;26.17;6.35;;;19.10;99.90;;;;;;5018216;28;20056;-68
2023/08/13 05:08:32;;;;;;;24.23;6.82;;;19.20;99.90;;;;;;5019400;28;20109;-67
2023/08/13 05:10:58;;;;;;;6.35;4.82;;;19.10;99.90;;;;;;5018062;28;20029;-68
2023/08/13 05:13:23;;;;;;;12.75;6.13;;;19.10;99.90;;;;;;5018794;28;20026;-67
2023/08/13 05:15:49;;;;;;;9.90;5.53;;;19.20;99.90;;;;;;5017841;28;20022;-67
2023/08/13 05:18:14;;;;;;;13.88;5.82;;;19.10;99.90;;;;;;5018536;28;20025;-67
2023/08/13 05:20:40;;;;;;;8.95;5.60;;;19.10;99.90;;;;;;5017832;28;20075;-68
2023/08/13 05:23:06;;;;;;;8.63;5.55;;;19.10;99.90;;;;;;5017732;28;20022;-68
2023/08/13 05:25:36;;;;;;;14.70;6.32;;;19.20;99.90;;;;;;5017681;28;20104;-67
2023/08/13 05:28:02;;;;;;;17.53;6.00;;;19.20;99.90;;;;;;5018483;28;20156;-67
2023/08/13 05:30:27;;;;;;;11.43;5.65;;;19.20;99.90;;;;;;5018555;28;20061;-68
2023/08/13 05:32:53;;;;;;;13.60;6.57;;;19.40;99.90;;;;;;5017548;28;20026;-67
2023/08/13 05:35:19;;;;;;;8.98;5.78;;;19.40;99.90;;;;;;5017575;28;20029;-67
2023/08/13 05:37:44;;;;;;;11.13;5.63;;;19.40;99.90;;;;;;5017391;28;20030;-67
2023/08/13 05:40:10;;;;;;;9.70;6.15;;;19.40;99.90;;;;;;5018442;28;20033;-67
2023/08/13 05:42:36;;;;;;;13.70;6.30;;;19.50;99.90;;;;;;5018356;28;20026;-67
2023/08/13 05:45:02;;;;;;;13.57;6.50;;;19.40;99.90;;;;;;5017397;28;20017;-68
2023/08/13 05:47:28;;;;;;;17.45;6.60;;;19.40;99.90;;;;;;5017295;28;20040;-68
2023/08/13 05:49:54;;;;;;;15.27;6.45;;;19.30;99.90;;;;;;5017245;28;20117;-68
2023/08/13 05:52:19;;;;;;;11.10;6.53;;;19.40;99.90;;;;;;5017727;28;20118;-68
2023/08/13 05:54:47;;;;;;;14.23;6.10;;;19.60;99.90;;;;;;5016845;28;20117;-68
2023/08/13 05:57:12;;;;;;;16.17;7.00;;;19.80;99.90;;;;;;5017084;28;20025;-68
2023/08/13 05:59:38;;;;;;;20.50;6.85;;;19.80;99.90;;;;;;5018203;28;20072;-68
2023/08/13 06:02:04;;;;;;;13.45;5.95;;;19.70;99.90;;;;;;5018118;28;20152;-68
2023/08/13 06:04:30;;;;;;;22.77;7.57;;;19.50;99.90;;;;;;5016974;28;20116;-68
2023/08/13 06:06:56;;;;;;;17.05;7.28;;;19.50;99.90;;;;;;5016886;28;20058;-68
2023/08/13 06:09:21;;;;;;;13.43;6.95;;;19.50;99.90;;;;;;5017020;28;20034;-68
2023/08/13 06:11:47;;;;;;;14.82;6.70;;;19.60;99.90;;;;;;5017788;28;20037;-68
2023/08/13 06:14:12;;;;;;;18.10;7.40;;;19.70;99.90;;;;;;5016958;28;20029;-68
2023/08/13 06:16:38;;;;;;;29.75;7.57;;;19.70;99.90;;;;;;5017106;28;20025;-68
2023/08/13 06:19:04;;;;;;;13.77;7.78;;;19.60;99.90;;;;;;5017214;28;20053;-67
2023/08/13 06:21:30;;;;;;;13.90;6.90;;;19.50;99.90;;;;;;5017868;28;20029;-68
2023/08/13 06:23:56;;;;;;;9.25;5.38;;;19.70;99.90;;;;;;5016669;28;20022;-68
2023/08/13 06:26:21;;;;;;;14.20;6.82;;;20.00;99.90;;;;;;5017568;28;20022;-68
2023/08/13 06:28:47;;;;;;;12.25;6.72;;;20.10;99.90;;;;;;5016903;28;20018;-68
2023/08/13 06:31:12;;;;;;;16.33;6.13;;;20.10;99.90;;;;;;5017466;28;20092;-68
2023/08/13 06:33:38;;;;;;;13.45;6.35;;;20.00;99.90;;;;;;5016986;28;20026;-68
2023/08/13 06:36:03;;;;;;;18.90;7.63;;;19.90;99.90;;;;;;5016515;28;20018;-67
2023/08/13 06:38:31;;;;;;;15.77;6.93;;;19.80;99.90;;;;;;5017389;28;20026;-68
2023/08/13 06:41:02;;;;;;;17.30;6.25;;;19.70;99.90;;;;;;5016395;28;20057;-68
2023/08/13 06:43:28;;;;;;;14.20;6.72;;;19.70;99.90;;;;;;5016557;28;20053;-67
2023/08/13 06:45:53;;;;;;;17.67;6.30;;;19.70;99.90;;;;;;5017753;28;20072;-67
2023/08/13 06:48:19;;;;;;;13.48;6.20;;;19.80;99.90;;;;;;5017475;28;20044;-68
2023/08/13 06:50:48;;;;;;;12.73;6.45;;;19.80;99.90;;;;;;5017312;28;20026;-67
2023/08/13 06:53:14;;;;;;;11.68;6.50;;;19.90;99.90;;;;;;5016419;28;20025;-67
2023/08/13 06:55:39;;;;;;;14.18;7.65;;;20.10;99.90;;;;;;5017279;28;20105;-68
2023/08/13 06:58:05;;;;;;;13.63;6.43;;;20.20;99.90;;;;;;5016223;28;20033;-68
2023/08/13 07:00:30;;;;;;;16.67;6.43;;;20.20;99.90;;;;;;5016207;28;20022;-68
2023/08/13 07:02:56;;;;;;;19.48;7.45;;;20.20;99.90;;;;;;5016309;28;20084;-68
2023/08/13 07:05:21;;;;;;;21.52;7.85;;;20.10;99.90;;;;;;5017170;28;20024;-68
2023/08/13 07:07:48;;;;;;;13.60;6.93;;;19.90;99.90;;;;;;5020377;28;20026;-68
2023/08/13 07:10:14;;;;;;;10.75;7.35;;;19.80;99.90;;;;;;5020121;28;20113;-67
2023/08/13 07:12:40;;;;;;;9.88;5.85;;;19.90;99.90;;;;;;5020844;28;20056;-68
2023/08/13 07:15:05;;;;;;;8.95;6.18;;;19.90;99.90;;;;;;5020705;28;20022;-68
2023/08/13 07:17:31;;;;;;;12.77;6.90;;;20.00;99.90;;;;;;5020531;28;20026;-68
2023/08/13 07:19:56;;;;;;;13.52;6.85;;;20.00;99.90;;;;;;5020110;28;20053;-68
2023/08/13 07:22:22;;;;;;;11.63;7.03;;;19.90;99.90;;;;;;5020357;28;20022;-68
2023/08/13 07:24:48;;;;;;;11.65;7.10;;;20.00;99.90;;;;;;5021026;28;20049;-68
2023/08/13 07:27:13;;;;;;;13.25;6.47;;;20.10;99.90;;;;;;5021325;28;20026;-68
2023/08/13 07:29:39;;;;;;;13.20;7.55;;;20.20;99.90;;;;;;5019878;28;20113;-68
2023/08/13 07:32:05;;;;;;;11.73;6.78;;;20.10;99.90;;;;;;5020294;28;20025;-68
2023/08/13 07:34:30;;;;;;;10.82;6.53;;;20.20;99.90;;;;;;5020250;28;20029;-68
2023/08/13 07:36:56;;;;;;;11.75;6.97;;;20.40;99.90;;;;;;5019674;28;20036;-68
2023/08/13 07:39:22;;;;;;;12.52;7.57;;;20.40;99.90;;;;;;5019900;28;20033;-68
2023/08/13 07:41:49;;;;;;;10.23;6.43;;;20.30;99.90;;;;;;5020573;28;20026;-68
2023/08/13 07:44:15;;;;;;;12.55;7.53;;;20.30;99.90;;;;;;5020593;28;20018;-68
2023/08/13 07:46:41;;;;;;;12.60;7.25;;;20.20;99.90;;;;;;5020470;28;20034;-68
2023/08/13 07:49:06;;;;;;;11.15;6.45;;;20.20;99.90;;;;;;5019470;28;20036;-67
2023/08/13 07:51:32;;;;;;;9.05;6.03;;;20.30;99.90;;;;;;5019417;28;20026;-67
2023/08/13 07:53:57;;;;;;;13.15;5.88;;;20.40;99.90;;;;;;5020030;28;20029;-67
2023/08/13 07:56:23;;;;;;;8.82;5.50;;;20.50;99.90;;;;;;5019725;28;20034;-67
2023/08/13 07:58:48;;;;;;;9.52;6.40;;;20.80;99.90;;;;;;5020086;28;20034;-68
2023/08/13 08:01:14;;;;;;;8.63;5.78;;;20.90;99.90;;;;;;5019303;28;20018;-67
2023/08/13 08:03:39;;;;;;;9.63;5.95;;;20.90;99.90;;;;;;5019275;28;20022;-67
2023/08/13 08:06:05;;;;;;;10.15;6.50;;;20.90;99.90;;;;;;5019663;28;20030;-67
2023/08/13 08:08:30;;;;;;;10.50;5.68;;;20.70;99.90;;;;;;5019232;28;20128;-67
2023/08/13 08:10:56;;;;;;;9.80;5.38;;;20.80;99.90;;;;;;5020742;28;20041;-66
2023/08/13 08:13:22;;;;;;;8.30;5.45;;;21.10;99.90;;;;;;5019138;28;20025;-66
2023/08/13 08:15:47;;;;;;;8.27;5.65;;;21.30;99.90;;;;;;5018530;28;20129;-66
2023/08/13 08:18:13;;;;;;;9.05;5.70;;;21.40;99.90;;;;;;5019148;28;20093;-66
2023/08/13 08:20:39;;;;;;;7.72;5.60;;;21.30;99.90;;;;;;5018882;28;20026;-66
2023/08/13 08:23:04;;;;;;;10.45;6.18;;;21.20;99.90;;;;;;5018974;28;20030;-66
2023/08/13 08:25:30;;;;;;;9.35;5.65;;;21.20;99.90;;;;;;5019164;28;20117;-66
2023/08/13 08:27:55;;;;;;;10.98;6.40;;;21.10;99.90;;;;;;5019159;28;20029;-66
2023/08/13 08:30:21;;;;;;;11.60;6.65;;;21.10;99.90;;;;;;5019192;28;20022;-66
2023/08/13 08:32:46;;;;;;;12.73;6.72;;;21.00;99.90;;;;;;5018987;28;20025;-66
2023/08/13 08:35:12;;;;;;;13.00;6.80;;;20.90;99.90;;;;;;5018724;28;20037;-66
2023/08/13 08:37:38;;;;;;;8.80;5.85;;;21.10;99.90;;;;;;5018675;28;20025;-66
2023/08/13 08:40:04;;;;;;;9.60;5.68;;;21.30;99.90;;;;;;5018503;28;20117;-66
2023/08/13 08:42:30;;;;;;;9.82;5.90;;;21.30;99.90;;;;;;5018530;28;20022;-66
2023/08/13 08:44:58;;;;;;;8.55;5.40;;;21.50;99.90;;;;;;5018691;28;20113;-66
2023/08/13 08:47:24;;;;;;;9.48;6.07;;;21.60;99.90;;;;;;5019589;28;20039;-66
2023/08/13 08:49:52;;;;;;;10.45;5.97;;;21.30;99.90;;;;;;5018534;28;20054;-66
2023/08/13 08:52:18;;;;;;;9.27;5.32;;;21.30;99.90;;;;;;5019219;28;20072;-66
2023/08/13 08:54:47;;;;;;;10.57;5.28;;;21.50;99.90;;;;;;5019374;28;20052;-66
2023/08/13 08:57:12;;;;;;;8.15;5.57;;;21.50;99.90;;;;;;5019159;28;20104;-66
2023/08/13 08:59:38;;;;;;;9.93;5.75;;;21.30;99.90;;;;;;5018111;28;20116;-66
2023/08/13 09:02:04;;;;;;;12.88;5.28;;;21.60;99.90;;;;;;5018452;28;20028;-66
2023/08/13 09:04:30;;;;;;;8.40;5.05;;;21.90;99.90;;;;;;5018158;28;20133;-66
2023/08/13 09:06:58;;;;;;;5.50;4.25;;;21.90;99.90;;;;;;5018100;28;20057;-67
2023/08/13 09:09:25;;;;;;;6.80;4.47;;;21.80;99.90;;;;;;5018924;28;20030;-66
2023/08/13 09:11:51;;;;;;;5.32;3.92;;;21.80;99.90;;;;;;5018497;28;20059;-66
2023/08/13 09:14:18;;;;;;;5.57;3.65;;;21.80;99.90;;;;;;5018800;28;20037;-66
2023/08/13 09:16:48;;;;;;;3.45;2.90;;;21.80;99.90;;;;;;5018939;28;20034;-66
2023/08/13 09:19:15;;;;;;;4.95;3.35;;;22.00;99.90;;;;;;5017747;28;20033;-67
2023/08/13 09:22:06;;;;;;;5.85;2.67;;;22.00;99.90;;;;;;5018168;28;20108;-66
2023/08/13 09:24:33;;;;;;;5.30;2.90;;;22.10;99.90;;;;;;5018569;28;20048;-66
2023/08/13 09:26:59;;;;;;;5.10;2.70;;;22.00;99.90;;;;;;5018247;28;20122;-66
2023/08/13 09:29:29;;;;;;;2.75;2.40;;;22.00;99.90;;;;;;5017107;28;20045;-66
2023/08/13 09:31:55;;;;;;;2.78;2.50;;;22.10;99.90;;;;;;5018213;28;20076;-66
2023/08/13 09:34:21;;;;;;;2.67;2.47;;;22.20;99.90;;;;;;5018492;28;20054;-66
2023/08/13 09:36:46;;;;;;;3.35;2.50;;;22.20;99.90;;;;;;5017862;28;20026;-66
2023/08/13 09:39:12;;;;;;;3.10;2.40;;;22.40;99.90;;;;;;5017838;28;20022;-67
2023/08/13 09:41:38;;;;;;;4.05;2.28;;;22.60;99.90;;;;;;5018518;28;20029;-67
2023/08/13 09:44:09;;;;;;;2.13;1.77;;;22.90;99.90;;;;;;5018136;28;20025;-66
2023/08/13 09:46:35;;;;;;;2.97;2.00;;;22.80;99.90;;;;;;5017410;28;20018;-66
2023/08/13 09:49:03;;;;;;;5.50;1.90;;;22.80;99.90;;;;;;5017162;28;20022;-66
2023/08/13 09:51:31;;;;;;;2.85;2.00;;;22.80;99.90;;;;;;5018201;28;20026;-66
2023/08/13 09:54:08;;;;;;;2.05;1.83;;;23.00;99.90;;;;;;5017497;28;20126;-67
2023/08/13 09:56:36;;;;;;;2.72;1.70;;;23.40;99.90;;;;;;5018415;28;20056;-66
2023/08/13 09:59:02;;;;;;;3.75;2.05;;;23.80;99.90;;;;;;5016935;28;20026;-66
2023/08/13 10:01:28;;;;;;;2.35;1.88;;;24.00;99.90;;;;;;5017170;28;20032;-67
2023/08/13 10:03:54;;;;;;;3.50;1.85;;;24.10;99.90;;;;;;5018214;28;20029;-67
2023/08/13 10:06:21;;;;;;;4.22;1.80;;;23.90;99.90;;;;;;5018249;28;20029;-66
2023/08/13 10:08:47;;;;;;;3.47;1.65;;;23.60;99.90;;;;;;5017648;28;20037;-66
2023/08/13 10:11:13;;;;;;;1.85;1.73;;;23.40;99.90;;;;;;5017003;28;20022;-66
2023/08/13 10:13:39;;;;;;;2.72;1.88;;;23.30;99.90;;;;;;5017482;28;20120;-67
2023/08/13 10:16:06;;;;;;;3.00;1.67;;;23.40;99.90;;;;;;5016735;28;20026;-66
2023/08/13 10:18:33;;;;;;;2.28;1.80;;;23.70;99.90;;;;;;5017591;28;20105;-67
2023/08/13 10:20:58;;;;;;;2.45;1.70;;;23.80;99.90;;;;;;5017741;28;20025;-66
2023/08/13 10:23:26;;;;;;;1.80;1.35;;;23.90;99.90;;;;;;5016697;28;20028;-67
2023/08/13 10:25:53;;;;;;;2.22;1.73;;;23.80;99.90;;;;;;5017614;28;20022;-67
2023/08/13 10:28:30;;;;;;;2.70;1.80;;;23.90;99.90;;;;;;5017391;28;20056;-67
2023/08/13 10:31:21;;;;;;;1.77;1.50;;;23.80;99.90;;;;;;5017953;28;20026;-66
2023/08/13 10:33:46;;;;;;;3.37;1.20;;;23.80;99.90;;;;;;5017101;28;20049;-67
2023/08/13 10:36:12;;;;;;;2.25;1.70;;;23.80;99.90;;;;;;5016930;28;20030;-67
2023/08/13 10:38:40;;;;;;;3.00;1.38;;;23.80;99.90;;;;;;5017198;28;20056;-67
2023/08/13 10:41:07;;;;;;;3.08;1.35;;;24.00;99.90;;;;;;5016444;28;20061;-67
2023/08/13 10:43:35;;;;;;;3.92;1.52;;;24.10;99.90;;;;;;5017279;28;20091;-66
2023/08/13 10:46:05;;;;;;;2.55;1.25;;;24.30;99.90;;;;;;5016940;28;20029;-67
2023/08/13 10:48:31;;;;;;;3.65;1.92;;;24.70;99.90;;;;;;5017512;28;20021;-67
2023/08/13 10:50:58;;;;;;;2.35;1.10;;;24.80;99.90;;;;;;5016633;28;20033;-67
2023/08/13 10:53:26;;;;;;;3.88;1.25;;;24.90;99.90;;;;;;5016688;28;20026;-66
2023/08/13 10:55:56;;;;;;;3.53;1.30;;;25.20;99.90;;;;;;5017264;28;20045;-66
2023/08/13 10:58:27;;;;;;;3.80;1.10;;;25.40;99.90;;;;;;5017144;28;20026;-67
2023/08/13 11:01:13;;;;;;;;;;;25.60;99.90;;;;;;5017597;28;20073;-67
2023/08/13 11:03:46;;;;;;;2.85;1.38;;;25.80;99.90;;;;;;5016907;28;19909;-66
2023/08/13 11:06:13;;;;;;;3.83;1.35;;;25.80;99.90;;;;;;5017053;28;20018;-66
2023/08/13 11:08:42;;;;;;;2.97;1.10;;;25.80;99.90;;;;;;5016341;28;20073;-66
2023/08/13 11:11:09;;;;;;;1.63;1.13;;;25.80;99.90;;;;;;5017271;28;20061;-67
2023/08/13 11:13:35;;;;;;;2.08;1.70;;;25.80;99.90;;;;;;5017014;28;20026;-66
2023/08/13 11:16:01;;;;;;;4.75;1.70;;;25.80;99.90;;;;;;5016221;28;20062;-67
2023/08/13 11:18:27;;;;;;;2.17;1.27;;;25.70;99.90;;;;;;5016433;28;20157;-66
2023/08/13 11:20:52;;;;;;;1.20;1.10;;;25.90;99.90;;;;;;5016998;28;20022;-67
2023/08/13 11:23:20;;;;;;;3.90;1.77;;;25.80;99.90;;;;;;5016945;28;20032;-67
2023/08/13 11:25:49;;;;;;;3.63;1.50;;;25.90;99.90;;;;;;5016933;28;20022;-67
2023/08/13 11:28:25;;;;;;;4.15;1.33;;;26.20;99.90;;;;;;5016502;28;20117;-67
2023/08/13 11:30:53;;;;;;;3.50;1.42;;;26.30;99.90;;;;;;5016839;28;20076;-67
2023/08/13 11:33:19;;;;;;;3.45;1.33;;;26.30;99.90;;;;;;5016928;28;20053;-67
2023/08/13 11:35:46;;;;;;;4.97;1.40;;;26.30;99.90;;;;;;5016832;28;20040;-66
2023/08/13 11:38:12;;;;;;;4.63;1.48;;;26.60;99.90;;;;;;5017049;28;20036;-67
2023/08/13 11:40:37;;;;;;;2.90;1.20;;;26.80;99.90;;;;;;5016657;28;20110;-67
2023/08/13 11:43:04;;;;;;;3.65;1.50;;;26.50;99.90;;;;;;5016112;28;20065;-67
2023/08/13 11:45:33;;;;;;;4.13;1.38;;;26.40;99.90;;;;;;5016330;28;20057;-67
2023/08/13 11:48:14;;;;;;;4.50;1.60;;;26.30;99.90;;;;;;5015849;28;20107;-67
2023/08/13 11:50:41;;;;;;;2.70;1.50;;;26.30;99.90;;;;;;5015965;28;20029;-67
2023/08/13 11:53:13;;;;;;;2.20;1.20;;;26.00;99.90;;;;;;5019215;28;20022;-67
2023/08/13 11:55:42;;;;;;;3.67;1.27;;;26.20;99.90;;;;;;5020418;28;20061;-67
2023/08/13 11:58:08;;;;;;;1.27;1.17;;;26.10;99.90;;;;;;5019612;28;20033;-67
2023/08/13 12:00:33;;;;;;;6.78;1.58;;;26.10;99.90;;;;;;5019597;28;20028;-67
2023/08/13 12:03:00;;;;;;;2.83;1.38;;;25.70;99.90;;;;;;5020331;28;20030;-67
2023/08/13 12:05:33;;;;;;;3.15;1.30;;;26.00;99.90;;;;;;5020019;28;20022;-66
2023/08/13 12:07:59;;;;;;;1.30;1.10;;;26.10;99.90;;;;;;5020112;28;20045;-67
2023/08/13 12:10:26;;;;;;;2.95;1.20;;;26.00;99.90;;;;;;5019429;28;20100;-66
2023/08/13 12:12:51;;;;;;;2.75;1.13;;;26.20;99.90;;;;;;5020197;28;20026;-66
2023/08/13 12:15:20;;;;;;;1.42;1.05;;;26.30;99.90;;;;;;5019127;28;20056;-67
2023/08/13 12:17:45;;;;;;;1.30;1.10;;;26.30;99.90;;;;;;5020534;28;20030;-67
2023/08/13 12:20:12;;;;;;;3.05;1.85;;;26.20;99.90;;;;;;5019065;28;20044;-67
2023/08/13 12:22:40;;;;;;;4.55;1.30;;;26.00;99.90;;;;;;5019038;28;20054;-67
2023/08/13 12:25:06;;;;;;;5.50;1.58;;;25.90;99.90;;;;;;5018901;28;20022;-67
2023/08/13 12:27:33;;;;;;;5.68;1.75;;;26.00;99.90;;;;;;5018813;28;20018;-66
2023/08/13 12:29:58;;;;;;;7.03;1.73;;;25.90;99.90;;;;;;5018750;28;20021;-67
2023/08/13 12:32:24;;;;;;;2.33;1.33;;;25.90;99.90;;;;;;5018815;28;20037;-66
2023/08/13 12:34:50;;;;;;;3.92;1.42;;;25.70;99.90;;;;;;5019595;28;20125;-66
2023/08/13 12:37:15;;;;;;;1.42;1.15;;;25.80;99.90;;;;;;5019033;28;20022;-67
2023/08/13 12:39:41;;;;;;;6.80;1.45;;;25.70;99.90;;;;;;5018567;28;20085;-67